createdAt,value
2023-01-28T00:04:08.431Z,-1.60
2023-01-28T00:09:11.918Z,-1.60
2023-01-28T00:14:15.734Z,-1.40
2023-01-28T00:19:18.978Z,-1.40
2023-01-28T00:24:22.499Z,-1.40
2023-01-28T00:29:26.158Z,-1.40
2023-01-28T00:34:29.616Z,-1.30
2023-01-28T00:39:32.997Z,-1.30
2023-01-28T00:44:36.956Z,-1.40
2023-01-28T00:49:40.210Z,-1.40
2023-01-28T00:54:43.391Z,-1.30
2023-01-28T00:59:46.979Z,-1.40
2023-01-28T01:04:59.501Z,-1.40
2023-01-28T01:10:03.165Z,-1.30
2023-01-28T01:15:10.782Z,-1.40
2023-01-28T01:20:20.328Z,-1.50
2023-01-28T01:25:23.981Z,-1.40
2023-01-28T01:30:27.958Z,-1.40
2023-01-28T01:35:31.188Z,-1.30
2023-01-28T01:40:35.470Z,-1.30
2023-01-28T01:45:38.769Z,-1.30
2023-01-28T01:50:55.708Z,-1.20
2023-01-28T01:56:03.041Z,-1.10
2023-01-28T02:01:07.689Z,-1.10
2023-01-28T02:06:11.368Z,-1.10
2023-01-28T02:11:15.396Z,-1.20
2023-01-28T02:16:19.659Z,-1.20
2023-01-28T02:21:46.537Z,-1.20
2023-01-28T02:27:07.767Z,-1.20
2023-01-28T02:32:21.279Z,-1.20
2023-01-28T02:37:28.005Z,-1.30
2023-01-28T02:42:35.427Z,-1.20
2023-01-28T02:47:57.112Z,-1.20
2023-01-28T02:53:44.538Z,-1.20
2023-01-28T02:58:53.910Z,-1.20
2023-01-28T03:04:05.296Z,-1.30
2023-01-28T03:09:24.789Z,-1.20
2023-01-28T03:14:47.277Z,-1.20
2023-01-28T03:20:09.519Z,-1.10
2023-01-28T03:25:34.618Z,-1.10
2023-01-28T03:31:08.823Z,-1.00
2023-01-28T03:36:31.083Z,-1.00
2023-01-28T03:41:34.306Z,-1.00
2023-01-28T03:46:39.983Z,-1.00
2023-01-28T03:51:43.257Z,-0.90
2023-01-28T03:56:46.570Z,-0.90
2023-01-28T04:01:51.089Z,-0.90
2023-01-28T04:06:55.906Z,-0.80
2023-01-28T04:11:59.196Z,-0.80
2023-01-28T04:17:02.913Z,-0.80
2023-01-28T04:22:08.526Z,-0.70
2023-01-28T04:27:11.807Z,-0.70
2023-01-28T04:32:15.244Z,-0.70
2023-01-28T04:37:18.845Z,-0.80
2023-01-28T04:42:22.147Z,-0.70
2023-01-28T04:47:25.405Z,-0.70
2023-01-28T04:52:28.646Z,-0.70
2023-01-28T04:57:31.856Z,-0.70
2023-01-28T05:02:35.288Z,-0.80
2023-01-28T05:07:38.958Z,-0.90
2023-01-28T05:12:45.003Z,-0.80
2023-01-28T05:17:48.616Z,-0.80
2023-01-28T05:22:52.361Z,-0.70
2023-01-28T05:27:56.102Z,-0.80
2023-01-28T05:32:59.321Z,-0.80
2023-01-28T05:38:03.486Z,-0.80
2023-01-28T05:43:06.920Z,-0.80
2023-01-28T05:48:10.412Z,-0.80
2023-01-28T05:53:13.745Z,-0.80
2023-01-28T05:58:17.631Z,-0.80
2023-01-28T06:03:20.943Z,-0.80
2023-01-28T06:08:24.450Z,-0.80
2023-01-28T06:13:27.722Z,-0.80
2023-01-28T06:18:31.109Z,-0.80
2023-01-28T06:23:34.994Z,-0.70
2023-01-28T06:28:38.506Z,-0.80
2023-01-28T06:33:42.081Z,-0.80
2023-01-28T06:38:45.710Z,-0.80
2023-01-28T06:43:49.301Z,-0.70
2023-01-28T06:48:54.273Z,-0.60
2023-01-28T06:53:57.572Z,-0.60
2023-01-28T06:59:01.170Z,-0.60
2023-01-28T07:04:04.754Z,-0.60
2023-01-28T07:09:08.010Z,-0.60
2023-01-28T07:14:12.242Z,-0.50
2023-01-28T07:19:15.502Z,-0.50
2023-01-28T07:24:19.036Z,-0.40
2023-01-28T07:29:22.728Z,-0.40
2023-01-28T07:34:26.097Z,-0.40
2023-01-28T07:39:29.270Z,-0.30
2023-01-28T07:44:32.560Z,-0.30
2023-01-28T07:49:35.939Z,-0.20
2023-01-28T07:54:39.403Z,-0.30
2023-01-28T07:59:42.709Z,-0.30
2023-01-28T08:04:47.217Z,-0.30
2023-01-28T08:09:52.275Z,-0.20
2023-01-28T08:14:55.379Z,-0.10
2023-01-28T08:19:59.220Z,0.00
2023-01-28T08:25:02.749Z,0.10
2023-01-28T08:30:06.711Z,0.10
2023-01-28T08:35:10.127Z,0.20
2023-01-28T08:40:13.959Z,0.20
2023-01-28T08:45:19.453Z,0.20
2023-01-28T08:50:25.086Z,0.30
2023-01-28T08:55:29.291Z,0.30
2023-01-28T09:00:33.804Z,0.30
2023-01-28T09:05:39.007Z,0.40
2023-01-28T09:10:42.840Z,0.30
2023-01-28T09:15:46.077Z,0.30
2023-01-28T09:20:50.122Z,0.40
2023-01-28T09:26:01.493Z,0.40
2023-01-28T09:31:06.094Z,0.50
2023-01-28T09:36:11.548Z,0.60
2023-01-28T09:41:28.632Z,0.70
2023-01-28T09:46:37.045Z,0.80
2023-01-28T09:51:45.922Z,0.90
2023-01-28T09:56:52.288Z,0.90
2023-01-28T10:02:05.294Z,0.90
2023-01-28T10:07:14.330Z,1.00
2023-01-28T10:12:47.962Z,0.80
2023-01-28T10:18:07.241Z,0.80
2023-01-28T10:23:49.309Z,0.90
2023-01-28T10:28:57.472Z,1.00
2023-01-28T10:34:01.222Z,1.10
2023-01-28T10:39:05.022Z,1.00
2023-01-28T10:44:35.103Z,1.00
2023-01-28T10:49:44.538Z,1.00
2023-01-28T10:54:47.993Z,1.10
2023-01-28T10:59:52.032Z,1.20
2023-01-28T11:05:33.986Z,1.20
2023-01-28T11:10:41.633Z,1.20
2023-01-28T11:16:17.459Z,1.20
2023-01-28T11:21:23.987Z,1.20
2023-01-28T11:26:32.656Z,1.30
2023-01-28T11:31:43.865Z,1.30
2023-01-28T11:37:04.650Z,1.30
2023-01-28T11:42:19.880Z,1.30
2023-01-28T11:47:50.904Z,1.20
2023-01-28T11:53:37.436Z,1.10
2023-01-28T11:59:06.709Z,1.10
2023-01-28T12:04:38.542Z,1.10
2023-01-28T12:10:03.335Z,1.10
2023-01-28T12:15:22.408Z,1.10
2023-01-28T12:20:32.584Z,1.20
2023-01-28T12:25:53.423Z,1.20
2023-01-28T12:31:21.306Z,1.10
2023-01-28T12:36:42.856Z,1.00
2023-01-28T12:42:05.159Z,1.00
2023-01-28T12:47:12.910Z,1.00
2023-01-28T12:52:24.252Z,0.90
2023-01-28T12:57:30.279Z,0.80
2023-01-28T13:03:05.659Z,0.70
2023-01-28T13:08:18.217Z,0.60
2023-01-28T13:13:38.088Z,0.60
2023-01-28T13:18:42.091Z,0.70
2023-01-28T13:23:48.069Z,0.70
2023-01-28T13:28:53.533Z,0.70
2023-01-28T13:33:56.890Z,0.60
2023-01-28T13:39:23.231Z,0.50
2023-01-28T13:44:26.523Z,0.40
2023-01-28T13:49:41.633Z,0.40
2023-01-28T13:54:52.603Z,0.40
2023-01-28T14:00:08.069Z,0.50
2023-01-28T14:05:17.907Z,0.40
2023-01-28T14:10:37.206Z,0.40
2023-01-28T14:16:01.185Z,0.40
2023-01-28T14:21:17.676Z,0.40
2023-01-28T14:26:46.189Z,0.30
2023-01-28T14:31:53.415Z,0.30
2023-01-28T14:37:19.320Z,0.20
2023-01-28T14:42:30.360Z,0.20
2023-01-28T14:47:43.349Z,0.20
2023-01-28T14:53:25.221Z,0.20
2023-01-28T14:58:36.360Z,0.20
2023-01-28T15:03:46.681Z,0.20
2023-01-28T15:08:50.636Z,0.30
2023-01-28T15:13:58.734Z,0.20
2023-01-28T15:19:02.981Z,0.30
2023-01-28T15:24:07.248Z,0.30
2023-01-28T15:29:31.133Z,0.30
2023-01-28T15:34:34.523Z,0.30
2023-01-28T15:39:38.029Z,0.20
2023-01-28T15:44:46.235Z,0.20
2023-01-28T15:49:54.426Z,0.20
2023-01-28T15:54:58.341Z,0.20
2023-01-28T16:00:21.275Z,0.20
2023-01-28T16:05:28.021Z,0.10
2023-01-28T16:10:31.992Z,0.00
2023-01-28T16:15:39.263Z,-0.10
2023-01-28T16:20:54.648Z,-0.10
2023-01-28T16:26:28.268Z,-0.10
2023-01-28T16:31:32.051Z,-0.10
2023-01-28T16:36:35.998Z,-0.10
2023-01-28T16:41:45.763Z,-0.10
2023-01-28T16:46:49.680Z,-0.10
2023-01-28T16:51:54.572Z,-0.10
2023-01-28T16:57:00.832Z,-0.10
2023-01-28T17:02:05.375Z,-0.10
2023-01-28T17:07:09.976Z,-0.10
2023-01-28T17:12:13.937Z,-0.10
2023-01-28T17:17:17.554Z,-0.10
2023-01-28T17:22:22.029Z,-0.10
2023-01-28T17:27:26.403Z,-0.10
2023-01-28T17:32:37.622Z,-0.10
2023-01-28T17:37:43.532Z,-0.10
2023-01-28T17:42:47.226Z,-0.20
2023-01-28T17:47:51.001Z,-0.10
2023-01-28T17:52:58.155Z,-0.20
2023-01-28T17:58:05.343Z,-0.20
2023-01-28T18:03:16.001Z,-0.20
2023-01-28T18:08:20.703Z,-0.20
2023-01-28T18:13:25.739Z,-0.20
2023-01-28T18:18:30.062Z,-0.20
2023-01-28T18:23:38.469Z,-0.20
2023-01-28T18:28:41.899Z,-0.20
2023-01-28T18:33:48.251Z,-0.30
2023-01-28T18:38:52.319Z,-0.30
2023-01-28T18:43:59.490Z,-0.30
2023-01-28T18:49:11.258Z,-0.30
2023-01-28T18:54:16.730Z,-0.20
2023-01-28T18:59:20.694Z,-0.20
2023-01-28T19:04:25.261Z,-0.30
2023-01-28T19:09:29.092Z,-0.20
2023-01-28T19:14:33.576Z,-0.20
2023-01-28T19:19:38.041Z,-0.20
2023-01-28T19:24:44.180Z,-0.20
2023-01-28T19:29:51.320Z,-0.20
2023-01-28T19:34:56.010Z,-0.30
2023-01-28T19:40:01.268Z,-0.30
2023-01-28T19:45:06.511Z,-0.30
2023-01-28T19:50:12.311Z,-0.20
2023-01-28T19:55:18.531Z,-0.30
2023-01-28T20:00:22.709Z,-0.20
2023-01-28T20:05:27.653Z,-0.20
2023-01-28T20:10:32.353Z,-0.20
2023-01-28T20:15:40.991Z,-0.30
2023-01-28T20:20:56.640Z,-0.20
2023-01-28T20:26:04.626Z,-0.10
2023-01-28T20:31:13.825Z,-0.20
2023-01-28T20:36:17.864Z,-0.20
2023-01-28T20:41:24.697Z,-0.20
2023-01-28T20:46:32.610Z,-0.20
2023-01-28T20:51:39.254Z,-0.20
2023-01-28T20:56:44.345Z,-0.20
2023-01-28T21:01:50.706Z,-0.20
2023-01-28T21:06:54.908Z,-0.20
2023-01-28T21:12:00.225Z,-0.20
2023-01-28T21:17:04.209Z,-0.20
2023-01-28T21:22:08.340Z,-0.20
2023-01-28T21:27:11.881Z,-0.20
2023-01-28T21:32:16.559Z,-0.20
2023-01-28T21:37:22.832Z,-0.20
2023-01-28T21:42:26.575Z,-0.20
2023-01-28T21:47:31.608Z,-0.10
2023-01-28T21:52:37.519Z,-0.20
2023-01-28T21:57:41.375Z,-0.20
2023-01-28T22:02:45.066Z,-0.10
2023-01-28T22:07:48.397Z,-0.20
2023-01-28T22:12:51.743Z,-0.20
2023-01-28T22:17:55.171Z,-0.20
2023-01-28T22:22:59.470Z,-0.20
2023-01-28T22:28:02.651Z,-0.20
2023-01-28T22:33:06.070Z,-0.20
2023-01-28T22:38:09.266Z,-0.20
2023-01-28T22:43:12.610Z,-0.20
2023-01-28T22:48:15.899Z,-0.20
2023-01-28T22:53:19.624Z,-0.30
2023-01-28T22:58:23.327Z,-0.20
2023-01-28T23:03:27.192Z,-0.20
2023-01-28T23:08:33.405Z,-0.20
2023-01-28T23:13:54.931Z,-0.20
2023-01-28T23:19:17.140Z,-0.30
2023-01-28T23:24:21.887Z,-0.30
2023-01-28T23:29:31.910Z,-0.40
2023-01-28T23:34:37.719Z,-0.40
2023-01-28T23:39:42.522Z,-0.50
2023-01-28T23:44:46.299Z,-0.50
2023-01-28T23:49:49.476Z,-0.60
2023-01-28T23:54:52.781Z,-0.60
2023-01-28T23:59:56.193Z,-0.50
